Time;durP1;ratioP1;P1;durP2;ratioP2;P2;SDS_P1;SDS_P2;PMS_P1;PMS_P2;Temp;Humidity;BMP_temperature;BMP_pressure;BME280_temperature;BME280_humidity;BME280_pressure;Samples;Min_cycle;Max_cycle;Signal;HPM_P1;HPM_P2
2023/04/18 00:03:03;;;;;;;9.55;4.60;;;;;;;;;;6243025;28;20111;-78
2023/04/18 00:06:05;;;;;;;8.35;4.13;;;;;;;;;;6242227;28;20049;-77
2023/04/18 00:09:06;;;;;;;10.23;4.38;;;;;;;;;;6243479;28;20065;-77
2023/04/18 00:12:09;;;;;;;7.63;4.93;;;;;;;;;;6244547;28;20355;-77
2023/04/18 00:15:11;;;;;;;9.65;5.05;;;;;;;;;;6245706;28;20056;-78
2023/04/18 00:18:16;;;;;;;9.82;4.93;;;;;;;;;;6242264;28;20103;-78
2023/04/18 00:21:17;;;;;;;9.07;4.78;;;;;;;;;;6243138;28;20220;-77
2023/04/18 00:24:19;;;;;;;10.65;5.40;;;;;;;;;;6242329;28;20053;-78
2023/04/18 00:27:21;;;;;;;9.05;5.38;;;;;;;;;;6242057;28;20658;-78
2023/04/18 00:30:23;;;;;;;8.25;4.85;;;;;;;;;;6243795;28;20063;-77
2023/04/18 00:33:26;;;;;;;8.23;4.80;;;;;;;;;;6241531;28;20057;-77
2023/04/18 00:36:28;;;;;;;8.07;4.70;;;;;;;;;;6241275;28;20058;-77
2023/04/18 00:39:30;;;;;;;8.80;5.07;;;;;;;;;;6240798;28;20337;-79
2023/04/18 00:42:31;;;;;;;10.30;5.20;;;;;;;;;;6241704;28;20061;-79
2023/04/18 00:45:33;;;;;;;7.93;5.57;;;;;;;;;;6243391;28;20060;-78
2023/04/18 00:48:37;;;;;;;9.73;5.90;;;;;;;;;;6243776;28;20061;-77
2023/04/18 00:51:39;;;;;;;12.30;5.72;;;;;;;;;;6243035;28;20474;-78
2023/04/18 00:54:41;;;;;;;8.82;5.90;;;;;;;;;;6238897;28;20088;-77
2023/04/18 00:57:43;;;;;;;10.02;5.20;;;;;;;;;;6241901;28;20105;-77
2023/04/18 01:00:44;;;;;;;9.52;5.47;;;;;;;;;;6243132;28;20325;-79
2023/04/18 01:03:47;;;;;;;11.23;5.07;;;;;;;;;;6240972;28;20127;-78
2023/04/18 01:06:50;;;;;;;7.00;5.03;;;;;;;;;;6241800;28;20061;-78
2023/04/18 01:09:52;;;;;;;8.30;4.90;;;;;;;;;;6239067;28;20049;-78
2023/04/18 01:13:12;;;;;;;7.50;4.80;;;;;;;;;;6238203;28;20338;-79
2023/04/18 01:16:14;;;;;;;9.35;5.13;;;;;;;;;;6243310;28;20104;-78
2023/04/18 01:19:17;;;;;;;10.23;5.35;;;;;;;;;;6244179;28;20117;-78
2023/04/18 01:22:19;;;;;;;10.73;5.37;;;;;;;;;;6239867;28;20038;-77
2023/04/18 01:25:22;;;;;;;7.13;4.63;;;;;;;;;;6241144;28;20057;-80
2023/04/18 01:28:26;;;;;;;8.00;4.40;;;;;;;;;;6242784;28;20056;-77
2023/04/18 01:31:28;;;;;;;9.85;4.35;;;;;;;;;;6241397;28;20049;-78
2023/04/18 01:34:29;;;;;;;9.00;5.00;;;;;;;;;;6244592;28;20558;-79
2023/04/18 01:37:31;;;;;;;6.32;4.18;;;;;;;;;;6240942;28;20053;-77
2023/04/18 01:40:34;;;;;;;8.23;4.65;;;;;;;;;;6239831;28;20108;-77
2023/04/18 01:43:36;;;;;;;5.70;3.73;;;;;;;;;;6241746;28;20057;-78
2023/04/18 01:46:37;;;;;;;7.97;4.70;;;;;;;;;;6242313;28;20139;-77
2023/04/18 01:49:41;;;;;;;6.00;4.30;;;;;;;;;;6233616;28;20132;-78
2023/04/18 01:52:43;;;;;;;;;;;;;;;;;;6243634;28;20117;-77
2023/04/18 01:55:46;;;;;;;10.07;5.15;;;;;;;;;;6239177;28;19929;-77
2023/04/18 01:58:47;;;;;;;9.55;4.82;;;;;;;;;;6241702;28;20086;-77
2023/04/18 02:01:49;;;;;;;6.93;4.13;;;;;;;;;;6242550;28;20053;-77
2023/04/18 02:04:51;;;;;;;8.60;4.07;;;;;;;;;;6239345;28;20152;-77
2023/04/18 02:07:52;;;;;;;8.07;4.50;;;;;;;;;;6238788;28;20285;-76
2023/04/18 02:10:55;;;;;;;9.18;5.15;;;;;;;;;;6240930;28;20061;-77
2023/04/18 02:13:58;;;;;;;12.55;5.80;;;;;;;;;;6241000;28;20053;-78
2023/04/18 02:17:00;;;;;;;8.75;5.53;;;;;;;;;;6247633;28;20068;-77
2023/04/18 02:20:01;;;;;;;10.77;5.47;;;;;;;;;;6241079;28;20045;-78
2023/04/18 02:23:04;;;;;;;9.93;5.32;;;;;;;;;;6245977;28;20096;-77
2023/04/18 02:26:07;;;;;;;10.90;6.20;;;;;;;;;;6244977;28;20501;-77
2023/04/18 02:29:08;;;;;;;10.45;6.07;;;;;;;;;;6244159;28;20099;-78
2023/04/18 02:32:10;;;;;;;10.25;6.35;;;;;;;;;;6248269;28;20053;-78
2023/04/18 02:35:12;;;;;;;9.32;6.60;;;;;;;;;;6246988;28;20045;-78
2023/04/18 02:38:14;;;;;;;10.57;6.40;;;;;;;;;;6246946;28;20045;-79
2023/04/18 02:41:18;;;;;;;9.13;6.43;;;;;;;;;;6246192;28;20053;-77
2023/04/18 02:44:19;;;;;;;11.40;6.03;;;;;;;;;;6246216;28;20060;-78
2023/04/18 02:47:21;;;;;;;11.10;6.22;;;;;;;;;;6244136;28;20064;-81
2023/04/18 02:50:23;;;;;;;7.97;5.82;;;;;;;;;;6238603;28;20072;-78
2023/04/18 02:53:24;;;;;;;9.75;5.93;;;;;;;;;;6241652;28;20053;-77
2023/04/18 02:56:27;;;;;;;8.82;5.85;;;;;;;;;;6241103;28;20061;-77
2023/04/18 02:59:29;;;;;;;8.83;6.17;;;;;;;;;;6243848;28;20058;-78
2023/04/18 03:02:31;;;;;;;7.85;6.10;;;;;;;;;;6236341;28;20058;-77
2023/04/18 03:05:32;;;;;;;9.85;5.85;;;;;;;;;;6237881;28;20053;-77
2023/04/18 03:08:34;;;;;;;8.68;6.05;;;;;;;;;;6238740;28;20100;-77
2023/04/18 03:11:37;;;;;;;14.07;6.38;;;;;;;;;;6235782;28;20429;-80
2023/04/18 03:14:39;;;;;;;9.13;6.53;;;;;;;;;;6240961;28;20352;-80
2023/04/18 03:17:41;;;;;;;8.30;6.15;;;;;;;;;;6238058;28;20048;-78
2023/04/18 03:20:42;;;;;;;9.68;6.38;;;;;;;;;;6241088;28;20061;-78
2023/04/18 03:23:44;;;;;;;11.13;6.90;;;;;;;;;;6240825;28;20065;-78
2023/04/18 03:26:47;;;;;;;7.65;6.00;;;;;;;;;;6243724;28;20057;-77
2023/04/18 03:29:49;;;;;;;10.18;6.57;;;;;;;;;;6245426;28;20226;-77
2023/04/18 03:32:51;;;;;;;10.13;6.43;;;;;;;;;;6244932;28;20049;-78
2023/04/18 03:35:53;;;;;;;10.00;6.85;;;;;;;;;;6246427;28;20241;-78
2023/04/18 03:38:54;;;;;;;9.82;6.55;;;;;;;;;;6245192;28;20045;-77
2023/04/18 03:41:57;;;;;;;10.73;6.35;;;;;;;;;;6242986;28;20119;-78
2023/04/18 03:44:59;;;;;;;12.65;6.55;;;;;;;;;;6245091;28;20057;-78
2023/04/18 03:48:01;;;;;;;9.13;6.72;;;;;;;;;;6243527;28;20282;-79
2023/04/18 03:51:02;;;;;;;11.40;6.80;;;;;;;;;;6241872;28;20138;-78
2023/04/18 03:54:04;;;;;;;14.30;6.95;;;;;;;;;;6241451;28;20104;-78
2023/04/18 03:57:07;;;;;;;8.48;6.38;;;;;;;;;;6244595;28;20061;-77
2023/04/18 04:00:11;;;;;;;14.17;6.60;;;;;;;;;;6243515;28;20053;-77
2023/04/18 04:03:13;;;;;;;11.75;6.75;;;;;;;;;;6243573;28;20477;-78
2023/04/18 04:06:16;;;;;;;13.68;6.55;;;;;;;;;;6244069;28;20060;-78
2023/04/18 04:09:18;;;;;;;12.85;6.72;;;;;;;;;;6241638;28;20368;-77
2023/04/18 04:12:21;;;;;;;13.98;6.95;;;;;;;;;;6243377;28;20314;-77
2023/04/18 04:15:22;;;;;;;14.80;7.20;;;;;;;;;;6241493;28;20481;-77
2023/04/18 04:18:29;;;;;;;17.65;7.25;;;;;;;;;;6242715;28;20053;-78
2023/04/18 04:21:31;;;;;;;14.75;7.00;;;;;;;;;;6243036;28;20077;-77
2023/04/18 04:24:34;;;;;;;12.70;6.57;;;;;;;;;;6242732;28;20395;-77
2023/04/18 04:27:37;;;;;;;12.27;6.53;;;;;;;;;;6241827;28;20054;-78
2023/04/18 04:30:40;;;;;;;9.38;5.90;;;;;;;;;;6243311;28;20068;-77
2023/04/18 04:33:42;;;;;;;12.80;6.25;;;;;;;;;;6241788;28;20052;-80
2023/04/18 04:36:44;;;;;;;12.15;7.05;;;;;;;;;;6241781;28;20124;-77
2023/04/18 04:39:46;;;;;;;13.07;6.72;;;;;;;;;;6242770;28;20075;-76
2023/04/18 04:42:52;;;;;;;11.82;6.57;;;;;;;;;;6241253;28;20360;-76
2023/04/18 04:45:54;;;;;;;16.67;6.60;;;;;;;;;;6242975;28;20041;-76
2023/04/18 04:48:56;;;;;;;10.65;7.03;;;;;;;;;;6243050;28;20064;-75
2023/04/18 04:51:57;;;;;;;18.33;6.75;;;;;;;;;;6240521;28;20107;-77
2023/04/18 04:54:59;;;;;;;11.57;6.18;;;;;;;;;;6241375;28;20065;-76
2023/04/18 04:58:02;;;;;;;9.77;6.07;;;;;;;;;;6245552;28;20382;-77
2023/04/18 05:01:06;;;;;;;10.35;6.13;;;;;;;;;;6240668;28;20057;-76
2023/04/18 05:04:07;;;;;;;;;;;;;;;;;;6241693;28;20048;-76
2023/04/18 05:07:09;;;;;;;9.20;5.43;;;;;;;;;;6240370;28;20090;-79
2023/04/18 05:10:11;;;;;;;9.93;5.97;;;;;;;;;;6240062;28;21984;-76
2023/04/18 05:13:14;;;;;;;10.55;6.07;;;;;;;;;;6239957;28;20049;-77
2023/04/18 05:16:15;;;;;;;9.10;6.10;;;;;;;;;;6240964;28;20396;-77
2023/04/18 05:19:17;;;;;;;11.10;6.30;;;;;;;;;;6239123;28;20056;-76
2023/04/18 05:22:18;;;;;;;9.60;5.70;;;;;;;;;;6243635;28;20103;-77
2023/04/18 05:25:20;;;;;;;8.85;5.57;;;;;;;;;;6238680;28;20123;-76
2023/04/18 05:28:25;;;;;;;12.93;5.68;;;;;;;;;;6239054;28;20072;-76
2023/04/18 05:31:27;;;;;;;10.85;5.10;;;;;;;;;;6239634;28;20103;-78
2023/04/18 05:34:29;;;;;;;13.57;6.05;;;;;;;;;;6237954;28;20233;-78
2023/04/18 05:37:31;;;;;;;12.45;6.25;;;;;;;;;;6241839;28;20140;-78
2023/04/18 05:40:33;;;;;;;10.82;5.90;;;;;;;;;;6240738;28;20265;-78
2023/04/18 05:43:36;;;;;;;12.63;5.93;;;;;;;;;;6237666;28;20057;-78
2023/04/18 05:46:38;;;;;;;12.25;5.78;;;;;;;;;;6238766;28;20376;-77
2023/04/18 05:49:39;;;;;;;16.40;6.70;;;;;;;;;;6238326;28;20091;-78
2023/04/18 05:52:41;;;;;;;17.58;6.32;;;;;;;;;;6240314;28;20057;-78
2023/04/18 05:55:45;;;;;;;13.57;5.53;;;;;;;;;;6240740;28;20045;-79
2023/04/18 05:58:50;;;;;;;12.00;5.53;;;;;;;;;;6239817;28;20095;-79
2023/04/18 06:01:51;;;;;;;8.73;5.25;;;;;;;;;;6239630;28;20053;-78
2023/04/18 06:04:53;;;;;;;9.10;5.53;;;;;;;;;;6200143;28;1136343;-78
2023/04/18 06:07:55;;;;;;;9.10;5.65;;;;;;;;;;6237289;28;20054;-78
2023/04/18 06:10:56;;;;;;;8.80;5.43;;;;;;;;;;6239497;28;20069;-78
2023/04/18 06:13:59;;;;;;;9.07;5.47;;;;;;;;;;6240004;28;20904;-78
2023/04/18 06:17:01;;;;;;;9.47;5.97;;;;;;;;;;6239932;28;20057;-78
2023/04/18 06:20:04;;;;;;;11.52;5.57;;;;;;;;;;6242700;28;20671;-77
2023/04/18 06:23:07;;;;;;;9.23;6.23;;;;;;;;;;6239144;28;20644;-78
2023/04/18 06:26:08;;;;;;;9.57;5.50;;;;;;;;;;6239961;28;20782;-78
2023/04/18 06:29:11;;;;;;;8.88;5.90;;;;;;;;;;6239759;28;20361;-78
2023/04/18 06:32:13;;;;;;;11.33;5.23;;;;;;;;;;6236665;28;20084;-78
2023/04/18 06:35:15;;;;;;;18.30;5.47;;;;;;;;;;6237895;28;20057;-79
2023/04/18 06:38:17;;;;;;;16.70;5.63;;;;;;;;;;6239555;28;20340;-78
2023/04/18 06:41:18;;;;;;;11.02;5.32;;;;;;;;;;6235975;28;20049;-78
2023/04/18 06:44:21;;;;;;;17.20;5.13;;;;;;;;;;6239161;28;20218;-79
2023/04/18 06:47:23;;;;;;;13.93;5.55;;;;;;;;;;6240124;28;20145;-79
2023/04/18 06:50:25;;;;;;;13.15;5.75;;;;;;;;;;6237580;28;20151;-80
2023/04/18 06:53:27;;;;;;;10.70;6.03;;;;;;;;;;6239931;28;20076;-79
2023/04/18 06:56:29;;;;;;;10.07;6.05;;;;;;;;;;6241698;28;20104;-80
2023/04/18 06:59:32;;;;;;;9.13;5.50;;;;;;;;;;6243543;28;20068;-77
2023/04/18 07:02:35;;;;;;;10.27;5.77;;;;;;;;;;6243382;28;20252;-78
2023/04/18 07:05:37;;;;;;;10.55;5.60;;;;;;;;;;6241992;28;20053;-81
2023/04/18 07:08:38;;;;;;;12.02;5.75;;;;;;;;;;6243744;28;20669;-78
2023/04/18 07:11:40;;;;;;;11.80;5.25;;;;;;;;;;6243678;28;20061;-76
2023/04/18 07:14:43;;;;;;;11.90;5.95;;;;;;;;;;6242438;28;20096;-75
2023/04/18 07:17:44;;;;;;;10.93;5.43;;;;;;;;;;6241769;28;20054;-77
2023/04/18 07:20:46;;;;;;;15.43;5.88;;;;;;;;;;6247174;28;20057;-78
2023/04/18 07:23:48;;;;;;;11.18;6.03;;;;;;;;;;6242174;28;20096;-78
2023/04/18 07:26:49;;;;;;;19.27;6.15;;;;;;;;;;6243732;28;20391;-77
2023/04/18 07:29:52;;;;;;;11.32;6.30;;;;;;;;;;6244802;28;20061;-76
2023/04/18 07:32:54;;;;;;;10.47;6.20;;;;;;;;;;6243759;28;20830;-76
2023/04/18 07:35:56;;;;;;;13.73;6.30;;;;;;;;;;6244537;28;20551;-78
2023/04/18 07:38:57;;;;;;;13.13;6.60;;;;;;;;;;6241406;28;20326;-78
2023/04/18 07:41:59;;;;;;;14.10;6.40;;;;;;;;;;6241567;28;20049;-77
2023/04/18 07:45:02;;;;;;;11.82;6.57;;;;;;;;;;6244009;28;20054;-78
2023/04/18 07:48:05;;;;;;;13.23;6.68;;;;;;;;;;6241809;28;20054;-79
2023/04/18 07:51:07;;;;;;;13.00;6.20;;;;;;;;;;6241245;28;20054;-79
2023/04/18 07:54:09;;;;;;;12.70;6.20;;;;;;;;;;6243786;28;20060;-78
2023/04/18 07:57:11;;;;;;;12.90;5.93;;;;;;;;;;6242837;28;20049;-77
2023/04/18 08:00:15;;;;;;;15.02;6.57;;;;;;;;;;6242409;28;20500;-77
2023/04/18 08:03:17;;;;;;;16.10;6.50;;;;;;;;;;6242806;28;20066;-78
2023/04/18 08:06:19;;;;;;;17.73;6.15;;;;;;;;;;6243385;28;20061;-77
2023/04/18 08:09:20;;;;;;;16.67;6.18;;;;;;;;;;6242403;28;20064;-77
2023/04/18 08:12:22;;;;;;;19.52;7.38;;;;;;;;;;6237590;28;20120;-77
2023/04/18 08:15:26;;;;;;;13.88;7.40;;;;;;;;;;6242594;28;20049;-78
2023/04/18 08:18:27;;;;;;;17.55;7.25;;;;;;;;;;6241586;28;20064;-76
2023/04/18 08:21:29;;;;;;;19.50;7.57;;;;;;;;;;6245020;28;20061;-77
2023/04/18 08:24:31;;;;;;;16.33;6.75;;;;;;;;;;6244777;28;20061;-78
2023/04/18 08:27:32;;;;;;;15.70;7.05;;;;;;;;;;6244659;28;20321;-78
2023/04/18 08:30:35;;;;;;;15.23;7.00;;;;;;;;;;6243830;28;20047;-78
2023/04/18 08:33:37;;;;;;;15.65;7.38;;;;;;;;;;6242596;28;20049;-77
2023/04/18 08:36:38;;;;;;;15.40;6.93;;;;;;;;;;6244905;28;20099;-77
2023/04/18 08:39:40;;;;;;;17.65;7.22;;;;;;;;;;6242218;28;20062;-77
2023/04/18 08:42:43;;;;;;;16.13;7.15;;;;;;;;;;6242857;28;20061;-78
2023/04/18 08:45:47;;;;;;;15.52;7.88;;;;;;;;;;6241653;28;20049;-77
2023/04/18 08:48:50;;;;;;;15.75;7.28;;;;;;;;;;6241530;28;20060;-78
2023/04/18 08:51:52;;;;;;;17.15;8.07;;;;;;;;;;6239439;28;20057;-78
2023/04/18 08:54:54;;;;;;;18.05;8.57;;;;;;;;;;6243589;28;20315;-78
2023/04/18 08:57:56;;;;;;;15.98;8.10;;;;;;;;;;6242110;28;20050;-78
2023/04/18 09:00:58;;;;;;;17.38;8.77;;;;;;;;;;6242335;28;20065;-77
2023/04/18 09:04:00;;;;;;;19.50;8.52;;;;;;;;;;6241181;28;20281;-78
2023/04/18 09:07:02;;;;;;;17.00;7.88;;;;;;;;;;6239222;28;20061;-78
2023/04/18 09:10:04;;;;;;;16.05;7.85;;;;;;;;;;6241256;28;20053;-81
2023/04/18 09:13:08;;;;;;;14.48;8.18;;;;;;;;;;6242392;28;20053;-76
2023/04/18 09:16:12;;;;;;;14.25;7.05;;;;;;;;;;6241783;28;20074;-76
2023/04/18 09:19:17;;;;;;;20.20;7.60;;;;;;;;;;6242111;28;20071;-79
2023/04/18 09:22:18;;;;;;;19.65;8.07;;;;;;;;;;6243012;28;20295;-77
2023/04/18 09:25:28;;;;;;;17.85;8.55;;;;;;;;;;6243149;28;20062;-76
2023/04/18 09:28:31;;;;;;;16.25;8.05;;;;;;;;;;6241880;28;20129;-78
2023/04/18 09:31:35;;;;;;;21.35;8.30;;;;;;;;;;6241239;28;20056;-77
2023/04/18 09:34:41;;;;;;;17.33;8.07;;;;;;;;;;6242188;28;20052;-77
2023/04/18 09:37:50;;;;;;;16.58;7.88;;;;;;;;;;6242055;28;20057;-77
2023/04/18 09:41:07;;;;;;;17.80;8.60;;;;;;;;;;6241599;28;20087;-76
2023/04/18 09:44:11;;;;;;;18.30;8.77;;;;;;;;;;6241832;28;20121;-76
2023/04/18 09:47:14;;;;;;;17.63;8.23;;;;;;;;;;6240810;28;20116;-77
2023/04/18 09:50:17;;;;;;;21.38;9.30;;;;;;;;;;6241540;28;20045;-75
2023/04/18 09:53:20;;;;;;;18.75;8.82;;;;;;;;;;6239308;28;20061;-76
2023/04/18 09:56:24;;;;;;;18.05;8.68;;;;;;;;;;6241942;28;20062;-76
2023/04/18 09:59:34;;;;;;;20.65;8.90;;;;;;;;;;6238678;28;20209;-76
2023/04/18 10:02:47;;;;;;;17.95;8.65;;;;;;;;;;6241363;28;20136;-76
2023/04/18 10:05:49;;;;;;;17.55;8.10;;;;;;;;;;6243584;28;20060;-75
2023/04/18 10:08:51;;;;;;;15.20;8.30;;;;;;;;;;6240866;28;20337;-76
2023/04/18 10:11:55;;;;;;;17.92;9.18;;;;;;;;;;6236670;28;20057;-77
2023/04/18 10:14:57;;;;;;;15.57;7.70;;;;;;;;;;6245472;28;20247;-77
2023/04/18 10:18:02;;;;;;;17.58;9.20;;;;;;;;;;6244009;28;20381;-74
2023/04/18 10:21:04;;;;;;;16.23;8.00;;;;;;;;;;6243341;28;20064;-75
2023/04/18 10:24:06;;;;;;;15.07;8.53;;;;;;;;;;6239508;28;20260;-78
2023/04/18 10:27:08;;;;;;;19.37;9.53;;;;;;;;;;6242742;28;20185;-79
2023/04/18 10:30:11;;;;;;;17.08;9.38;;;;;;;;;;6240659;28;20530;-78
2023/04/18 10:33:31;;;;;;;19.70;9.32;;;;;;;;;;6240391;28;20112;-78
2023/04/18 10:36:33;;;;;;;15.07;8.23;;;;;;;;;;6241498;28;20057;-81
2023/04/18 10:39:48;;;;;;;13.32;8.02;;;;;;;;;;6242725;28;20119;-78
2023/04/18 10:42:59;;;;;;;14.90;8.50;;;;;;;;;;6238937;28;20054;-76
2023/04/18 10:46:10;;;;;;;16.25;8.75;;;;;;;;;;6238286;28;20164;-80
2023/04/18 10:49:14;;;;;;;15.43;8.55;;;;;;;;;;6238484;28;20112;-79
2023/04/18 10:52:16;;;;;;;15.15;8.75;;;;;;;;;;6238912;28;20119;-79
2023/04/18 10:55:20;;;;;;;11.63;6.53;;;;;;;;;;6237941;28;20145;-78
2023/04/18 10:58:22;;;;;;;13.35;6.82;;;;;;;;;;6240402;28;20073;-78
2023/04/18 11:01:27;;;;;;;15.38;8.18;;;;;;;;;;6241228;28;20159;-80
2023/04/18 11:04:30;;;;;;;13.95;7.80;;;;;;;;;;6238922;28;20057;-80
2023/04/18 11:07:32;;;;;;;;;;;;;;;;;;6222741;28;20061;-82
2023/04/18 11:10:33;;;;;;;15.45;8.80;;;;;;;;;;6237347;28;20223;-80
2023/04/18 11:13:36;;;;;;;18.55;8.90;;;;;;;;;;6241987;28;20057;-78
2023/04/18 11:16:37;;;;;;;15.33;8.33;;;;;;;;;;6238942;28;20057;-78
2023/04/18 11:19:41;;;;;;;17.83;8.25;;;;;;;;;;6239890;28;20429;-78
2023/04/18 11:22:45;;;;;;;14.07;8.38;;;;;;;;;;6238914;28;20058;-80
2023/04/18 11:25:50;;;;;;;13.27;7.15;;;;;;;;;;6239518;28;20329;-80
2023/04/18 11:28:52;;;;;;;11.68;6.40;;;;;;;;;;6242458;28;20107;-79
2023/04/18 11:31:54;;;;;;;15.88;7.07;;;;;;;;;;6244022;28;20103;-80
2023/04/18 11:34:57;;;;;;;15.38;6.88;;;;;;;;;;6242615;28;20045;-80
2023/04/18 11:37:59;;;;;;;16.60;7.03;;;;;;;;;;6244681;28;20057;-78
2023/04/18 11:41:02;;;;;;;11.38;6.35;;;;;;;;;;6245546;28;20333;-79
2023/04/18 11:44:06;;;;;;;13.23;7.28;;;;;;;;;;6244061;28;20268;-87
2023/04/18 11:47:22;;;;;;;14.90;6.88;;;;;;;;;;6248785;28;20085;-77
2023/04/18 11:50:25;;;;;;;11.45;6.70;;;;;;;;;;6247783;28;20053;-77
2023/04/18 11:53:34;;;;;;;11.45;6.70;;;;;;;;;;6247933;28;20242;-75
2023/04/18 11:56:36;;;;;;;10.00;6.10;;;;;;;;;;6250366;28;20103;-76
2023/04/18 11:59:37;;;;;;;9.98;5.45;;;;;;;;;;6245711;28;20131;-77
2023/04/18 12:02:41;;;;;;;9.35;5.57;;;;;;;;;;6246913;28;20127;-75
2023/04/18 12:05:45;;;;;;;8.18;5.40;;;;;;;;;;6248086;28;20226;-77
2023/04/18 12:08:46;;;;;;;7.85;5.03;;;;;;;;;;6246603;28;20057;-76
2023/04/18 12:11:59;;;;;;;8.30;5.07;;;;;;;;;;6245048;28;20072;-77
2023/04/18 12:15:03;;;;;;;9.25;5.10;;;;;;;;;;6238918;28;20112;-78
2023/04/18 12:18:06;;;;;;;9.38;6.05;;;;;;;;;;6247246;28;20049;-78
2023/04/18 12:21:10;;;;;;;10.55;6.28;;;;;;;;;;6222527;28;20051;-78
2023/04/18 12:24:15;;;;;;;8.55;5.55;;;;;;;;;;6248160;28;20351;-78
2023/04/18 12:27:16;;;;;;;9.23;5.70;;;;;;;;;;6247705;28;20080;-77
2023/04/18 12:30:20;;;;;;;9.52;5.45;;;;;;;;;;6248170;28;20050;-77
2023/04/18 12:33:22;;;;;;;9.55;5.20;;;;;;;;;;6245667;28;20073;-78
2023/04/18 12:36:27;;;;;;;13.87;5.33;;;;;;;;;;6247597;28;20064;-77
2023/04/18 12:39:28;;;;;;;8.68;4.95;;;;;;;;;;6243445;28;20060;-78
2023/04/18 12:42:30;;;;;;;10.13;5.18;;;;;;;;;;6243156;28;20181;-80
2023/04/18 12:45:32;;;;;;;8.70;5.63;;;;;;;;;;6244986;28;20055;-78
2023/04/18 12:48:33;;;;;;;8.23;5.93;;;;;;;;;;6240467;28;20054;-77
2023/04/18 12:51:36;;;;;;;9.82;5.70;;;;;;;;;;6240374;28;20087;-77
2023/04/18 12:54:38;;;;;;;7.43;4.78;;;;;;;;;;6238596;28;20058;-76
2023/04/18 12:57:41;;;;;;;7.93;5.63;;;;;;;;;;6239895;28;20045;-75
2023/04/18 13:00:42;;;;;;;7.10;5.13;;;;;;;;;;6240511;28;20046;-76
2023/04/18 13:03:44;;;;;;;7.75;4.70;;;;;;;;;;6236246;28;20065;-76
2023/04/18 13:06:47;;;;;;;10.63;5.70;;;;;;;;;;6241171;28;20325;-77
2023/04/18 13:09:51;;;;;;;7.53;3.65;;;;;;;;;;6243439;28;20068;-76
2023/04/18 13:12:53;;;;;;;6.18;3.50;;;;;;;;;;6241518;28;20057;-75
2023/04/18 13:15:55;;;;;;;3.63;2.53;;;;;;;;;;6239132;28;20053;-75
2023/04/18 13:18:56;;;;;;;3.65;2.40;;;;;;;;;;6238441;28;20053;-77
2023/04/18 13:22:01;;;;;;;5.80;2.65;;;;;;;;;;6240945;28;20060;-74
2023/04/18 13:25:02;;;;;;;5.90;3.42;;;;;;;;;;6240890;28;20100;-78
2023/04/18 13:28:04;;;;;;;6.80;4.57;;;;;;;;;;6240547;28;20064;-76
2023/04/18 13:31:06;;;;;;;8.60;4.83;;;;;;;;;;6240967;28;20050;-78
2023/04/18 13:34:07;;;;;;;6.60;4.22;;;;;;;;;;6241862;28;20052;-75
2023/04/18 13:37:10;;;;;;;7.60;5.10;;;;;;;;;;6240091;28;20054;-76
2023/04/18 13:40:12;;;;;;;6.97;4.35;;;;;;;;;;6240768;28;20073;-75
2023/04/18 13:43:14;;;;;;;5.32;3.83;;;;;;;;;;6238872;28;20055;-76
2023/04/18 13:46:16;;;;;;;6.35;4.10;;;;;;;;;;6239666;28;20053;-79
2023/04/18 13:49:17;;;;;;;6.77;4.30;;;;;;;;;;6240320;28;20053;-75
2023/04/18 13:52:20;;;;;;;8.25;4.53;;;;;;;;;;6238636;28;20109;-78
2023/04/18 13:55:23;;;;;;;7.25;4.70;;;;;;;;;;6213499;28;20154;-76
2023/04/18 13:58:24;;;;;;;8.43;4.55;;;;;;;;;;6240520;28;20333;-75
2023/04/18 14:01:26;;;;;;;11.85;5.07;;;;;;;;;;6239152;28;20100;-75
2023/04/18 14:04:30;;;;;;;6.97;4.20;;;;;;;;;;6238547;28;20053;-75
2023/04/18 14:07:33;;;;;;;6.15;4.40;;;;;;;;;;6240143;28;20056;-77
2023/04/18 14:10:35;;;;;;;6.38;4.43;;;;;;;;;;6241660;28;20107;-76
2023/04/18 14:13:36;;;;;;;5.90;3.90;;;;;;;;;;6237635;28;20072;-76
2023/04/18 14:16:38;;;;;;;5.45;3.85;;;;;;;;;;6241368;28;20236;-79
2023/04/18 14:19:40;;;;;;;7.05;4.72;;;;;;;;;;6237351;28;20356;-76
2023/04/18 14:22:43;;;;;;;7.22;4.18;;;;;;;;;;6237583;28;20363;-76
2023/04/18 14:25:44;;;;;;;6.28;4.53;;;;;;;;;;6239992;28;20065;-77
2023/04/18 14:28:46;;;;;;;5.40;3.70;;;;;;;;;;6241512;28;20405;-76
2023/04/18 14:31:48;;;;;;;5.10;4.20;;;;;;;;;;6241642;28;20046;-78
2023/04/18 14:34:49;;;;;;;5.17;3.77;;;;;;;;;;6242513;28;20065;-78
2023/04/18 14:37:53;;;;;;;6.68;4.07;;;;;;;;;;6238511;28;20291;-76
2023/04/18 14:40:54;;;;;;;6.00;4.20;;;;;;;;;;6238867;28;20053;-76
2023/04/18 14:43:56;;;;;;;6.25;4.18;;;;;;;;;;6236317;28;20068;-78
2023/04/18 14:46:58;;;;;;;5.90;4.55;;;;;;;;;;6240877;28;20112;-76
2023/04/18 14:50:01;;;;;;;9.23;4.57;;;;;;;;;;6238549;28;20068;-73
2023/04/18 14:53:04;;;;;;;6.40;4.90;;;;;;;;;;6239340;28;20340;-71
2023/04/18 14:56:07;;;;;;;6.53;4.80;;;;;;;;;;6238700;28;20115;-74
2023/04/18 14:59:08;;;;;;;7.18;5.72;;;;;;;;;;6238958;28;20057;-73
2023/04/18 15:02:10;;;;;;;7.93;5.70;;;;;;;;;;6240120;28;20245;-73
2023/04/18 15:05:12;;;;;;;9.80;6.18;;;;;;;;;;6239071;28;20548;-73
2023/04/18 15:08:15;;;;;;;6.90;5.25;;;;;;;;;;6242124;28;20084;-74
2023/04/18 15:11:17;;;;;;;10.73;5.07;;;;;;;;;;6238461;28;20061;-73
2023/04/18 15:14:19;;;;;;;7.55;5.45;;;;;;;;;;6239674;28;20064;-74
2023/04/18 15:17:21;;;;;;;6.95;4.97;;;;;;;;;;6237584;28;20057;-74
2023/04/18 15:20:23;;;;;;;7.20;5.28;;;;;;;;;;6239260;28;20057;-72
2023/04/18 15:23:26;;;;;;;9.23;5.72;;;;;;;;;;6242713;28;20103;-74
2023/04/18 15:26:28;;;;;;;9.20;6.13;;;;;;;;;;6241519;28;20112;-75
2023/04/18 15:29:29;;;;;;;9.32;5.95;;;;;;;;;;6242345;28;20063;-74
2023/04/18 15:32:31;;;;;;;12.57;6.50;;;;;;;;;;6245563;28;20052;-75
2023/04/18 15:35:33;;;;;;;10.30;6.05;;;;;;;;;;6242043;28;20077;-76
2023/04/18 15:38:36;;;;;;;11.15;6.93;;;;;;;;;;6241557;28;20324;-74
2023/04/18 15:41:38;;;;;;;7.50;5.28;;;;;;;;;;6240274;28;20049;-74
2023/04/18 15:44:39;;;;;;;8.73;6.22;;;;;;;;;;6247311;28;20053;-74
2023/04/18 15:47:41;;;;;;;8.60;6.03;;;;;;;;;;6241203;28;20287;-75
2023/04/18 15:50:43;;;;;;;8.82;6.20;;;;;;;;;;6250255;28;20536;-75
2023/04/18 15:53:46;;;;;;;6.40;5.03;;;;;;;;;;6242593;28;20042;-74
2023/04/18 15:56:47;;;;;;;6.65;5.47;;;;;;;;;;6247032;28;20109;-74
2023/04/18 15:59:49;;;;;;;9.67;6.53;;;;;;;;;;6248193;28;20176;-75
2023/04/18 16:02:51;;;;;;;8.02;5.43;;;;;;;;;;6248150;28;20058;-74
2023/04/18 16:05:52;;;;;;;8.47;5.77;;;;;;;;;;6245085;28;20045;-75
2023/04/18 16:08:56;;;;;;;9.40;5.80;;;;;;;;;;6247149;28;20057;-74
2023/04/18 16:11:57;;;;;;;9.05;6.57;;;;;;;;;;6247877;28;20244;-74
2023/04/18 16:14:59;;;;;;;9.32;5.90;;;;;;;;;;6249740;28;20056;-76
2023/04/18 16:18:01;;;;;;;8.93;6.03;;;;;;;;;;6243908;28;20081;-76
2023/04/18 16:21:02;;;;;;;8.95;5.93;;;;;;;;;;6243188;28;20104;-74
2023/04/18 16:24:06;;;;;;;8.68;6.25;;;;;;;;;;6245148;28;20052;-74
2023/04/18 16:27:08;;;;;;;11.48;7.05;;;;;;;;;;6241950;28;20065;-75
2023/04/18 16:30:10;;;;;;;11.30;6.38;;;;;;;;;;6242407;28;20065;-75
2023/04/18 16:33:12;;;;;;;10.20;7.10;;;;;;;;;;6239228;28;20072;-76
2023/04/18 16:36:14;;;;;;;10.70;6.50;;;;;;;;;;6240272;28;20479;-77
2023/04/18 16:39:17;;;;;;;10.25;6.60;;;;;;;;;;6238794;28;20265;-76
2023/04/18 16:42:19;;;;;;;9.95;5.85;;;;;;;;;;6241582;28;20076;-75
2023/04/18 16:45:21;;;;;;;9.85;6.55;;;;;;;;;;6240092;28;20061;-77
2023/04/18 16:48:22;;;;;;;9.10;6.18;;;;;;;;;;6240511;28;20057;-75
2023/04/18 16:51:25;;;;;;;12.30;6.97;;;;;;;;;;6239562;28;20122;-74
2023/04/18 16:54:28;;;;;;;12.25;6.70;;;;;;;;;;6242611;28;20049;-75
2023/04/18 16:57:29;;;;;;;11.15;6.88;;;;;;;;;;6238238;28;20112;-75
2023/04/18 17:00:31;;;;;;;13.35;6.18;;;;;;;;;;6241539;28;20088;-79
2023/04/18 17:03:33;;;;;;;9.90;6.30;;;;;;;;;;6243330;28;20049;-81
2023/04/18 17:06:34;;;;;;;11.07;5.90;;;;;;;;;;6238907;28;20057;-81
2023/04/18 17:09:37;;;;;;;9.77;5.78;;;;;;;;;;6241904;28;20061;-80
2023/04/18 17:12:39;;;;;;;9.27;5.88;;;;;;;;;;6243704;28;20053;-81
2023/04/18 17:15:41;;;;;;;42.95;25.73;;;;;;;;;;6250076;28;20270;-80
2023/04/18 17:18:43;;;;;;;9.10;6.20;;;;;;;;;;6242393;28;20061;-80
2023/04/18 17:21:45;;;;;;;39.95;20.33;;;;;;;;;;6240322;28;20141;-81
2023/04/18 17:24:48;;;;;;;10.25;6.68;;;;;;;;;;6241875;28;20085;-76
2023/04/18 17:27:49;;;;;;;11.30;6.05;;;;;;;;;;6240166;28;20057;-75
2023/04/18 17:30:51;;;;;;;8.48;5.28;;;;;;;;;;6242681;28;20064;-76
2023/04/18 17:33:53;;;;;;;9.57;5.10;;;;;;;;;;6234783;28;20400;-76
2023/04/18 17:36:57;;;;;;;9.73;5.50;;;;;;;;;;6240855;28;20364;-77
2023/04/18 17:40:05;;;;;;;7.90;4.97;;;;;;;;;;6236914;28;20065;-80
2023/04/18 17:43:10;;;;;;;7.95;5.28;;;;;;;;;;6241845;28;20294;-79
2023/04/18 17:46:12;;;;;;;8.70;4.95;;;;;;;;;;6239782;28;20113;-75
2023/04/18 17:49:14;;;;;;;10.10;5.45;;;;;;;;;;6242793;28;20372;-75
2023/04/18 17:52:16;;;;;;;9.18;5.47;;;;;;;;;;6240821;28;20081;-75
2023/04/18 17:55:20;;;;;;;9.68;6.07;;;;;;;;;;6243545;28;20301;-77
2023/04/18 17:58:22;;;;;;;10.20;5.60;;;;;;;;;;6244164;28;20054;-75
2023/04/18 18:01:24;;;;;;;9.43;5.57;;;;;;;;;;6244464;28;20062;-76
2023/04/18 18:04:26;;;;;;;9.70;5.47;;;;;;;;;;6245336;28;20061;-75
2023/04/18 18:07:33;;;;;;;9.52;5.22;;;;;;;;;;6244946;28;20049;-76